Ana Sayfa
METAR-TAF:

METAR-TAF

Havaalanları :

Victoria, Mahé, Seyşel Adaları

Enlem: 04-40S, Boylam: 055-31E, yükseklik: 3 m

Güncel hava durumu gözlemi

Rapor saat 00:00 UTC de 23 dakika önce yapıldı.
Rüzgar güneydan 7 kt, doğu/güneydoğu ve güneybatı arasında değişken
Sıcaklık 27°C
Nem 79%
Basınç 1010 hPa
Görüş mesafesi 10 km veya daha fazla
2000 ft yükseklikte az bulutlu

METAR: FSIA 230000Z 18007KT 120V220 9999 FEW020 27/23 Q1010 NOSIG

Saat: 04:23 (00:23 UTC)

Tahmin

Rapor saat 23:02 UTC de 1 saat ve 21 dakika önce yapıldı.
Ayın 23'si saat 00 UTC'den ayın 23'si saat 24 UTC'ye kadar geçerli Tahmin
Rüzgar güneydoğudan 15 kt ve 25 kt'a kadar ani rüzgarlar
Görüş mesafesi 10 km veya daha fazla
2400 ft yükseklikte parçalı bulutlu

TAF: FSIA 222302Z 2300/2324 14015G25KT 9999 SCT024

4.000'den fazla havaalanı için hava durumu gözlemleri ve tahminleri (METAR ve TAF raporları).

Kullanılabilir istasyonlar harita üzerinde sarı ve kırmızı noktalarla gösterilir.

İstasyonun adını görmek için fareyi noktanın üzerinde gezdirin.

Sonrasında hava gözlem ve tahminlerini görmek için tıklayın.

Haritayı değiştirmek için: yaklaştırmak için siyah artı işaretli yeşil düğmeye ve uzaklaştırmak için de eksi işaretli düğmeye hızla tıklayın; bitişik haritalar için yeşil okları kullanın.


METAR-TAF: